Al Rawdah — V7VM8 — position and weather

sailwx.info

Track history (hours):
 
Tides and Currents Weather Stations Pressure Air Temp Water Temp Dewpoint Dewpoint Depression Visibility Wind Speed Wind Dir Waves Ship Positions

Al Rawdah

Last reported at 2014-Jul-12 21:30 UTC. Time now 2014-Jul-24 21:40 UTC.
Position N 31°15' E 032°18'.
Warning: this ship's position is 12 days out of date.

Length 307 m; draft 13.2 m.

Type: Ship (hazmat cat A). MMSI: 538004160.

Date/timePositionNaut miles runAvg speedWind from/ knotsBaromVisibWave heightAir tempDewpointWater temp
2014-Jul-12 21:30N 31°15' E 032°18'0 0.0
2014-Jul-12 20:33N 31°15' E 032°18'0 0.0
2014-Jul-12 19:24N 31°15' E 032°18'0 0.0
2014-Jul-12 18:18N 31°15' E 032°18'0 0.1
2014-Jul-12 17:33N 31°15' E 032°18'0 0.0
2014-Jul-12 16:30N 31°15' E 032°18'0 0.0
2014-Jul-12 15:33N 31°15' E 032°18'0 0.0
2014-Jul-12 14:24N 31°15' E 032°18'0 0.0
2014-Jul-12 13:15N 31°15' E 032°18'0 0.1
2014-Jul-12 12:24N 31°15' E 032°18'0 0.0
2014-Jul-12 04:33N 31°15' E 032°18'0 0.0
2014-Jul-12 01:27N 31°15' E 032°18'0 0.0
2014-Jul-11 23:27N 31°15' E 032°18'0 0.0
2014-Jul-11 20:18N 31°15' E 032°18'0 0.0
2014-Jul-11 19:18N 31°15' E 032°18'0 0.0
2014-Jul-11 18:24N 31°15' E 032°18'0 0.0
2014-Jul-11 17:27N 31°15' E 032°18'0 0.0
2014-Jul-11 16:33N 31°15' E 032°18'4 4.4
2014-Jul-11 15:34N 31°18' E 032°21'7 6.8
2014-Jul-11 14:33N 31°24' E 032°18'0 0.1
2014-Jul-11 13:33N 31°24' E 032°18'0 0.0
2014-Jul-11 12:33N 31°24' E 032°18'0 0.0
2014-Jul-11 11:33N 31°24' E 032°18'0 0.0
2014-Jul-11 10:33N 31°24' E 032°18'0 0.0
2014-Jul-11 09:33N 31°24' E 032°18'0 0.0
2014-Jul-11 08:33N 31°24' E 032°18'0 0.0
2014-Jul-11 07:33N 31°24' E 032°18'0 0.0
2014-Jul-11 06:33N 31°24' E 032°18'0 0.0
2014-Jul-11 05:32N 31°24' E 032°18'14 4.4
2014-Jul-11 02:26N 31°35' E 032°08'1214.1
2014-Jul-11 01:33N 31°44' E 031°58'1615.3
2014-Jul-11 00:32N 31°52' E 031°42'1515.8
2014-Jul-10 23:34N 31°57' E 031°25'1615.6
2014-Jul-10 22:33N 32°01' E 031°07'1515.3
2014-Jul-10 21:33N 32°06' E 030°50'1515.4
2014-Jul-10 20:33N 32°11' E 030°33'1615.6
2014-Jul-10 19:33N 32°15' E 030°15'1615.6
2014-Jul-10 18:33N 32°20' E 029°58'1615.7
2014-Jul-10 17:33N 32°24' E 029°40'1515.4
2014-Jul-10 16:34N 32°29' E 029°22'1515.0
2014-Jul-10 15:34N 32°33' E 029°05'1515.3
2014-Jul-10 14:33N 32°38' E 028°48'1515.5
2014-Jul-10 13:33N 32°42' E 028°30'11415.7
2014-Jul-10 06:17N 33°17' E 026°20'1316.0
2014-Jul-10 05:26N 33°20' E 026°05'22115.7
2014-Jul-09 15:22N 34°26' E 021°51'1416.2
2014-Jul-09 14:30N 34°30' E 021°35'1516.0
2014-Jul-09 13:33N 34°35' E 021°17'21615.4
2014-Jul-08 23:28N 35°39' E 017°05'7415.0
2014-Jul-08 18:33N 36°01' E 015°38'1515.2
2014-Jul-08 17:33N 36°05' E 015°20'1514.9
2014-Jul-08 16:32N 36°10' E 015°02'1414.6
2014-Jul-08 15:34N 36°14' E 014°45'1515.2
2014-Jul-08 14:34N 36°18' E 014°27'1515.1
2014-Jul-08 13:34N 36°23' E 014°09'1515.1
2014-Jul-08 12:33N 36°27' E 013°51'1515.2
2014-Jul-08 11:33N 36°32' E 013°33'1915.9
2014-Jul-08 10:20N 36°38' E 013°10'1416.6
2014-Jul-08 09:29N 36°45' E 012°55'1816.9
2014-Jul-08 08:26N 36°57' E 012°39'14316.0
2014-Jul-07 23:32N 37°52' E 009°53'1716.3
2014-Jul-07 22:30N 37°56' E 009°32'1516.0
2014-Jul-07 21:33N 37°59' E 009°14'1716.4
2014-Jul-07 20:30N 38°02' E 008°52'5617.3
2014-Jul-07 17:17N 38°14' E 007°43'15317.3
2014-Jul-07 08:24N 38°46' E 004°31'1517.0
2014-Jul-07 07:31N 38°49' E 004°12'3417.1
2014-Jul-07 05:33N 38°55' E 003°30'1717.2
2014-Jul-07 04:33N 38°59' E 003°09'1717.1
2014-Jul-07 03:33N 39°03' E 002°47'1717.0
2014-Jul-07 02:33N 39°06' E 002°26'1716.5
2014-Jul-07 01:33N 39°09' E 002°05'1716.9
2014-Jul-07 00:33N 39°11' E 001°43'1717.0
2014-Jul-06 23:33N 39°13' E 001°21'1716.7
2014-Jul-06 22:33N 39°16' E 001°00'2016.8
2014-Jul-06 21:23N 39°19' E 000°35'2217.0
2014-Jul-06 20:05N 39°22' E 000°07'1117.0
2014-Jul-06 19:26N 39°24' W 000°07'910.8
2014-Jul-06 18:33N 39°27' W 000°19'0 0.2
2014-Jul-06 17:32N 39°27' W 000°19'0 0.1
2014-Jul-06 16:32N 39°27' W 000°19'0 0.1
2014-Jul-06 15:32N 39°27' W 000°19'0 0.0
2014-Jul-06 14:32N 39°27' W 000°19'0 0.0
2014-Jul-06 13:32N 39°27' W 000°19'0 0.1
2014-Jul-06 12:32N 39°27' W 000°19'0 0.0
2014-Jul-06 11:32N 39°27' W 000°19'0 0.0
2014-Jul-06 10:32N 39°27' W 000°19'0 0.0
2014-Jul-06 09:29N 39°27' W 000°19'0 0.0
2014-Jul-06 08:32N 39°27' W 000°19'0 0.0
2014-Jul-06 07:32N 39°27' W 000°19'0 0.0
2014-Jul-06 06:29N 39°27' W 000°19'0 0.0
2014-Jul-06 05:32N 39°27' W 000°19'0 0.0
2014-Jul-06 04:32N 39°27' W 000°19'0 0.0
2014-Jul-06 03:32N 39°27' W 000°19'0 0.0
2014-Jul-06 02:32N 39°27' W 000°19'0 0.0
2014-Jul-06 01:32N 39°27' W 000°19'0 0.0
2014-Jul-06 00:32N 39°27' W 000°19'0 0.0
2014-Jul-05 23:32N 39°27' W 000°19'0 0.0
2014-Jul-05 22:32N 39°27' W 000°19'2 1.5
2014-Jul-05 21:33N 39°26' W 000°18'4 3.6
2014-Jul-05 20:33N 39°26' W 000°13'10 9.7
2014-Jul-05 19:33N 39°33' W 000°05'1313.1
2014-Jul-05 18:33N 39°42' E 000°08'1413.7
2014-Jul-05 17:33N 39°52' E 000°20'1414.2
2014-Jul-05 16:33N 40°02' E 000°33'1414.1
2014-Jul-05 15:33N 40°11' E 000°47'1414.2
2014-Jul-05 14:33N 40°20' E 001°01'1413.6
2014-Jul-05 13:34N 40°29' E 001°14'1413.5
2014-Jul-05 12:33N 40°39' E 001°27'1414.0
2014-Jul-05 11:33N 40°49' E 001°40'1414.0
2014-Jul-05 10:33N 40°60' E 001°52'1514.8
2014-Jul-05 09:33N 41°11' E 002°05'8 3.8
2014-Jul-05 07:27N 41°18' E 002°09'0 0.1
2014-Jul-05 06:33N 41°18' E 002°09'0 0.1
2014-Jul-05 05:33N 41°18' E 002°09'0 0.0
2014-Jul-05 04:27N 41°18' E 002°09'0 0.0
2014-Jul-05 03:24N 41°18' E 002°09'0 0.0
2014-Jul-05 02:27N 41°18' E 002°09'0 0.0
2014-Jul-05 01:27N 41°18' E 002°09'0 0.0
2014-Jul-05 00:33N 41°18' E 002°09'0 0.0
2014-Jul-04 23:27N 41°18' E 002°09'0 0.0
2014-Jul-04 21:25N 41°19' E 002°09'0 0.0
2014-Jul-04 20:33N 41°18' E 002°09'1 1.1
2014-Jul-04 19:33N 41°19' E 002°10'4 4.2
2014-Jul-04 18:33N 41°16' E 002°14'7 7.1
2014-Jul-04 17:33N 41°19' E 002°23'6 6.4
2014-Jul-04 16:33N 41°22' E 002°30'7 7.0
2014-Jul-04 15:33N 41°25' E 002°39'7 7.0
2014-Jul-04 14:33N 41°28' E 002°47'7 6.8
2014-Jul-04 13:33N 41°31' E 002°56'7 6.9
2014-Jul-04 12:30N 41°35' E 003°04'7 7.5
2014-Jul-04 11:34N 41°41' E 003°10'9 8.5
2014-Jul-04 10:33N 41°47' E 003°18'8 7.9
2014-Jul-04 09:33N 41°54' E 003°23'1816.3
2014-Jul-04 08:25N 42°06' E 003°41'2218.2
2014-Jul-04 07:14N 42°22' E 004°00'1317.8
2014-Jul-04 06:31N 42°32' E 004°12'2118.2
2014-Jul-04 05:22N 42°48' E 004°30'1417.7
2014-Jul-04 04:33N 42°58' E 004°44'1616.6
2014-Jul-04 03:33N 43°11' E 004°58'1212.1
2014-Jul-04 02:33N 43°23' E 004°57'5 5.2
2014-Jul-04 01:33N 43°25' E 004°51'0 0.0
2014-Jul-04 00:32N 43°25' E 004°51'0 0.0
2014-Jul-03 23:32N 43°25' E 004°51'0 0.0
2014-Jul-03 22:29N 43°25' E 004°51'0 0.0
2014-Jul-03 21:32N 43°25' E 004°51'0 0.0
2014-Jul-03 20:32N 43°25' E 004°51'0 0.0
2014-Jul-03 19:32N 43°25' E 004°51'0 0.0
2014-Jul-03 18:32N 43°25' E 004°51'0 0.0
2014-Jul-03 17:32N 43°25' E 004°51'0 0.0
2014-Jul-03 16:32N 43°25' E 004°51'0 0.0
2014-Jul-03 15:32N 43°25' E 004°51'0 0.0
2014-Jul-03 14:32N 43°25' E 004°51'0 0.0
2014-Jul-03 13:32N 43°25' E 004°51'0 0.0
2014-Jul-03 12:32N 43°25' E 004°51'0 0.0
2014-Jul-03 11:32N 43°25' E 004°51'0 0.0
2014-Jul-03 10:32N 43°25' E 004°51'0 0.0
2014-Jul-03 09:32N 43°25' E 004°51'0 0.0
2014-Jul-03 08:32N 43°25' E 004°51'0 0.0
2014-Jul-03 07:32N 43°25' E 004°51'0 0.0
2014-Jul-03 06:32N 43°25' E 004°51'0 0.0
2014-Jul-03 05:32N 43°25' E 004°51'0 0.0
2014-Jul-03 04:32N 43°25' E 004°51'0 0.0
2014-Jul-03 03:32N 43°25' E 004°51'0 0.0
2014-Jul-03 02:32N 43°25' E 004°51'0 0.0
2014-Jul-03 01:32N 43°25' E 004°51'0 0.0
2014-Jul-03 00:32N 43°25' E 004°51'0 0.0
2014-Jul-02 23:32N 43°25' E 004°51'0 0.0
2014-Jul-02 22:32N 43°25' E 004°51'0 0.0
2014-Jul-02 21:32N 43°25' E 004°51'  
Track history (hours):
 
Tides and Currents Weather Stations Pressure Air Temp Water Temp Dewpoint Dewpoint Depression Visibility Wind Speed Wind Dir Waves Ship Positions

Al Rawdah

Last reported at 2014-Jul-12 21:30 UTC. Time now 2014-Jul-24 21:40 UTC.
Position N 31°15' E 032°18'.
Warning: this ship's position is 12 days out of date.

Length 307 m; draft 13.2 m.

Type: Ship (hazmat cat A). MMSI: 538004160.

Date/timePositionNaut miles runAvg speedWind from/ knotsBaromVisibWave heightAir tempDewpointWater temp
2014-Jul-12 21:30N 31°15' E 032°18'0 0.0
2014-Jul-12 20:33N 31°15' E 032°18'0 0.0
2014-Jul-12 19:24N 31°15' E 032°18'0 0.0
2014-Jul-12 18:18N 31°15' E 032°18'0 0.1
2014-Jul-12 17:33N 31°15' E 032°18'0 0.0
2014-Jul-12 16:30N 31°15' E 032°18'0 0.0
2014-Jul-12 15:33N 31°15' E 032°18'0 0.0
2014-Jul-12 14:24N 31°15' E 032°18'0 0.0
2014-Jul-12 13:15N 31°15' E 032°18'0 0.1
2014-Jul-12 12:24N 31°15' E 032°18'0 0.0
2014-Jul-12 04:33N 31°15' E 032°18'0 0.0
2014-Jul-12 01:27N 31°15' E 032°18'0 0.0
2014-Jul-11 23:27N 31°15' E 032°18'0 0.0
2014-Jul-11 20:18N 31°15' E 032°18'0 0.0
2014-Jul-11 19:18N 31°15' E 032°18'0 0.0
2014-Jul-11 18:24N 31°15' E 032°18'0 0.0
2014-Jul-11 17:27N 31°15' E 032°18'0 0.0
2014-Jul-11 16:33N 31°15' E 032°18'4 4.4
2014-Jul-11 15:34N 31°18' E 032°21'7 6.8
2014-Jul-11 14:33N 31°24' E 032°18'0 0.1
2014-Jul-11 13:33N 31°24' E 032°18'0 0.0
2014-Jul-11 12:33N 31°24' E 032°18'0 0.0
2014-Jul-11 11:33N 31°24' E 032°18'0 0.0
2014-Jul-11 10:33N 31°24' E 032°18'0 0.0
2014-Jul-11 09:33N 31°24' E 032°18'0 0.0
2014-Jul-11 08:33N 31°24' E 032°18'0 0.0
2014-Jul-11 07:33N 31°24' E 032°18'0 0.0
2014-Jul-11 06:33N 31°24' E 032°18'0 0.0
2014-Jul-11 05:32N 31°24' E 032°18'14 4.4
2014-Jul-11 02:26N 31°35' E 032°08'1214.1
2014-Jul-11 01:33N 31°44' E 031°58'1615.3
2014-Jul-11 00:32N 31°52' E 031°42'1515.8
2014-Jul-10 23:34N 31°57' E 031°25'1615.6
2014-Jul-10 22:33N 32°01' E 031°07'1515.3
2014-Jul-10 21:33N 32°06' E 030°50'1515.4
2014-Jul-10 20:33N 32°11' E 030°33'1615.6
2014-Jul-10 19:33N 32°15' E 030°15'1615.6
2014-Jul-10 18:33N 32°20' E 029°58'1615.7
2014-Jul-10 17:33N 32°24' E 029°40'1515.4
2014-Jul-10 16:34N 32°29' E 029°22'1515.0
2014-Jul-10 15:34N 32°33' E 029°05'1515.3
2014-Jul-10 14:33N 32°38' E 028°48'1515.5
2014-Jul-10 13:33N 32°42' E 028°30'11415.7
2014-Jul-10 06:17N 33°17' E 026°20'1316.0
2014-Jul-10 05:26N 33°20' E 026°05'22115.7
2014-Jul-09 15:22N 34°26' E 021°51'1416.2
2014-Jul-09 14:30N 34°30' E 021°35'1516.0
2014-Jul-09 13:33N 34°35' E 021°17'21615.4
2014-Jul-08 23:28N 35°39' E 017°05'7415.0
2014-Jul-08 18:33N 36°01' E 015°38'1515.2
2014-Jul-08 17:33N 36°05' E 015°20'1514.9
2014-Jul-08 16:32N 36°10' E 015°02'1414.6
2014-Jul-08 15:34N 36°14' E 014°45'1515.2
2014-Jul-08 14:34N 36°18' E 014°27'1515.1
2014-Jul-08 13:34N 36°23' E 014°09'1515.1
2014-Jul-08 12:33N 36°27' E 013°51'1515.2
2014-Jul-08 11:33N 36°32' E 013°33'1915.9
2014-Jul-08 10:20N 36°38' E 013°10'1416.6
2014-Jul-08 09:29N 36°45' E 012°55'1816.9
2014-Jul-08 08:26N 36°57' E 012°39'14316.0
2014-Jul-07 23:32N 37°52' E 009°53'1716.3
2014-Jul-07 22:30N 37°56' E 009°32'1516.0
2014-Jul-07 21:33N 37°59' E 009°14'1716.4
2014-Jul-07 20:30N 38°02' E 008°52'5617.3
2014-Jul-07 17:17N 38°14' E 007°43'15317.3
2014-Jul-07 08:24N 38°46' E 004°31'1517.0
2014-Jul-07 07:31N 38°49' E 004°12'3417.1
2014-Jul-07 05:33N 38°55' E 003°30'1717.2
2014-Jul-07 04:33N 38°59' E 003°09'1717.1
2014-Jul-07 03:33N 39°03' E 002°47'1717.0
2014-Jul-07 02:33N 39°06' E 002°26'1716.5
2014-Jul-07 01:33N 39°09' E 002°05'1716.9
2014-Jul-07 00:33N 39°11' E 001°43'1717.0
2014-Jul-06 23:33N 39°13' E 001°21'1716.7
2014-Jul-06 22:33N 39°16' E 001°00'2016.8
2014-Jul-06 21:23N 39°19' E 000°35'2217.0
2014-Jul-06 20:05N 39°22' E 000°07'1117.0
2014-Jul-06 19:26N 39°24' W 000°07'910.8
2014-Jul-06 18:33N 39°27' W 000°19'0 0.2
2014-Jul-06 17:32N 39°27' W 000°19'0 0.1
2014-Jul-06 16:32N 39°27' W 000°19'0 0.1
2014-Jul-06 15:32N 39°27' W 000°19'0 0.0
2014-Jul-06 14:32N 39°27' W 000°19'0 0.0
2014-Jul-06 13:32N 39°27' W 000°19'0 0.1
2014-Jul-06 12:32N 39°27' W 000°19'0 0.0
2014-Jul-06 11:32N 39°27' W 000°19'0 0.0
2014-Jul-06 10:32N 39°27' W 000°19'0 0.0
2014-Jul-06 09:29N 39°27' W 000°19'0 0.0
2014-Jul-06 08:32N 39°27' W 000°19'0 0.0
2014-Jul-06 07:32N 39°27' W 000°19'0 0.0
2014-Jul-06 06:29N 39°27' W 000°19'0 0.0
2014-Jul-06 05:32N 39°27' W 000°19'0 0.0
2014-Jul-06 04:32N 39°27' W 000°19'0 0.0
2014-Jul-06 03:32N 39°27' W 000°19'0 0.0
2014-Jul-06 02:32N 39°27' W 000°19'0 0.0
2014-Jul-06 01:32N 39°27' W 000°19'0 0.0
2014-Jul-06 00:32N 39°27' W 000°19'0 0.0
2014-Jul-05 23:32N 39°27' W 000°19'0 0.0
2014-Jul-05 22:32N 39°27' W 000°19'2 1.5
2014-Jul-05 21:33N 39°26' W 000°18'4 3.6
2014-Jul-05 20:33N 39°26' W 000°13'10 9.7
2014-Jul-05 19:33N 39°33' W 000°05'1313.1
2014-Jul-05 18:33N 39°42' E 000°08'1413.7
2014-Jul-05 17:33N 39°52' E 000°20'1414.2
2014-Jul-05 16:33N 40°02' E 000°33'1414.1
2014-Jul-05 15:33N 40°11' E 000°47'1414.2
2014-Jul-05 14:33N 40°20' E 001°01'1413.6
2014-Jul-05 13:34N 40°29' E 001°14'1413.5
2014-Jul-05 12:33N 40°39' E 001°27'1414.0
2014-Jul-05 11:33N 40°49' E 001°40'1414.0
2014-Jul-05 10:33N 40°60' E 001°52'1514.8
2014-Jul-05 09:33N 41°11' E 002°05'8 3.8
2014-Jul-05 07:27N 41°18' E 002°09'0 0.1
2014-Jul-05 06:33N 41°18' E 002°09'0 0.1
2014-Jul-05 05:33N 41°18' E 002°09'0 0.0
2014-Jul-05 04:27N 41°18' E 002°09'0 0.0
2014-Jul-05 03:24N 41°18' E 002°09'0 0.0
2014-Jul-05 02:27N 41°18' E 002°09'0 0.0
2014-Jul-05 01:27N 41°18' E 002°09'0 0.0
2014-Jul-05 00:33N 41°18' E 002°09'0 0.0
2014-Jul-04 23:27N 41°18' E 002°09'0 0.0
2014-Jul-04 21:25N 41°19' E 002°09'0 0.0
2014-Jul-04 20:33N 41°18' E 002°09'1 1.1
2014-Jul-04 19:33N 41°19' E 002°10'4 4.2
2014-Jul-04 18:33N 41°16' E 002°14'7 7.1
2014-Jul-04 17:33N 41°19' E 002°23'6 6.4
2014-Jul-04 16:33N 41°22' E 002°30'7 7.0
2014-Jul-04 15:33N 41°25' E 002°39'7 7.0
2014-Jul-04 14:33N 41°28' E 002°47'7 6.8
2014-Jul-04 13:33N 41°31' E 002°56'7 6.9
2014-Jul-04 12:30N 41°35' E 003°04'7 7.5
2014-Jul-04 11:34N 41°41' E 003°10'9 8.5
2014-Jul-04 10:33N 41°47' E 003°18'8 7.9
2014-Jul-04 09:33N 41°54' E 003°23'1816.3
2014-Jul-04 08:25N 42°06' E 003°41'2218.2
2014-Jul-04 07:14N 42°22' E 004°00'1317.8
2014-Jul-04 06:31N 42°32' E 004°12'2118.2
2014-Jul-04 05:22N 42°48' E 004°30'1417.7
2014-Jul-04 04:33N 42°58' E 004°44'1616.6
2014-Jul-04 03:33N 43°11' E 004°58'1212.1
2014-Jul-04 02:33N 43°23' E 004°57'5 5.2
2014-Jul-04 01:33N 43°25' E 004°51'0 0.0
2014-Jul-04 00:32N 43°25' E 004°51'0 0.0
2014-Jul-03 23:32N 43°25' E 004°51'0 0.0
2014-Jul-03 22:29N 43°25' E 004°51'0 0.0
2014-Jul-03 21:32N 43°25' E 004°51'0 0.0
2014-Jul-03 20:32N 43°25' E 004°51'0 0.0
2014-Jul-03 19:32N 43°25' E 004°51'0 0.0
2014-Jul-03 18:32N 43°25' E 004°51'0 0.0
2014-Jul-03 17:32N 43°25' E 004°51'0 0.0
2014-Jul-03 16:32N 43°25' E 004°51'0 0.0
2014-Jul-03 15:32N 43°25' E 004°51'0 0.0
2014-Jul-03 14:32N 43°25' E 004°51'0 0.0
2014-Jul-03 13:32N 43°25' E 004°51'0 0.0
2014-Jul-03 12:32N 43°25' E 004°51'0 0.0
2014-Jul-03 11:32N 43°25' E 004°51'0 0.0
2014-Jul-03 10:32N 43°25' E 004°51'0 0.0
2014-Jul-03 09:32N 43°25' E 004°51'0 0.0
2014-Jul-03 08:32N 43°25' E 004°51'0 0.0
2014-Jul-03 07:32N 43°25' E 004°51'0 0.0
2014-Jul-03 06:32N 43°25' E 004°51'0 0.0
2014-Jul-03 05:32N 43°25' E 004°51'0 0.0
2014-Jul-03 04:32N 43°25' E 004°51'0 0.0
2014-Jul-03 03:32N 43°25' E 004°51'0 0.0
2014-Jul-03 02:32N 43°25' E 004°51'0 0.0
2014-Jul-03 01:32N 43°25' E 004°51'0 0.0
2014-Jul-03 00:32N 43°25' E 004°51'0 0.0
2014-Jul-02 23:32N 43°25' E 004°51'0 0.0
2014-Jul-02 22:32N 43°25' E 004°51'0 0.0
2014-Jul-02 21:32N 43°25' E 004°51'  

Dump ship's entire track history